Terminal Aerodrome Forecast
Issued by NWS

Home | Current Version | Previous Version | Text Only | Print | Product List | Glossary On
Versions: 1 2 3 4 5 6 7 8 9 10 11 12 13 14 15 16 17
000
FTUS43 KGRR 290400 AAA
TAFAZO
TAF AMD
KAZO 290417Z 2904/2924 17009KT P6SM -SN OVC060
     FM290700 17009KT P6SM OVC050
     FM290900 17009KT 6SM BR OVC035
     FM291500 18011G19KT P6SM OVC025=

USA.gov is the U.S. government's official web portal to all federal, state and local government web resources and services.